Time;durP1;ratioP1;P1;durP2;ratioP2;P2;SDS_P1;SDS_P2;PMS_P1;PMS_P2;Temp;Humidity;BMP_temperature;BMP_pressure;BME280_temperature;BME280_humidity;BME280_pressure;Samples;Min_cycle;Max_cycle;Signal;HPM_P1;HPM_P2
2022/09/14 00:01:19;;;;;;;;;;;;;;;23.43;100.00;98158.88;5036349;28;20079;-41
2022/09/14 00:03:44;;;;;;;;;;;;;;;23.05;100.00;98172.13;5053648;28;19920;-41
2022/09/14 00:06:11;;;;;;;;;;;;;;;22.68;100.00;98166.94;5072354;28;19962;-41
2022/09/14 00:08:36;;;;;;;;;;;;;;;24.01;100.00;98160.94;5056689;28;19920;-41
2022/09/14 00:11:05;;;;;;;;;;;;;;;23.08;100.00;98173.63;5071634;28;19931;-41
2022/09/14 00:13:31;;;;;;;;;;;;;;;22.55;100.00;98168.09;5054438;28;19927;-41
2022/09/14 00:15:56;;;;;;;;;;;;;;;23.20;100.00;98166.38;5070709;28;19921;-41
2022/09/14 00:18:21;;;;;;;;;;;;;;;23.77;100.00;98159.00;5054619;28;20634;-41
2022/09/14 00:20:46;;;;;;;;;;;;;;;23.51;100.00;98161.53;5053771;28;20524;-40
2022/09/14 00:23:11;;;;;;;;;;;;;;;23.00;100.00;98160.44;5072024;28;19971;-41
2022/09/14 00:25:37;;;;;;;;;;;;;;;24.31;96.74;98137.75;5052080;28;19931;-41
2022/09/14 00:28:02;;;;;;;;;;;;;;;23.57;98.89;98142.56;5060646;28;19963;-40
2022/09/14 00:30:28;;;;;;;;;;;;;;;22.69;100.00;98155.47;5050539;28;19931;-41
2022/09/14 00:32:53;;;;;;;;;;;;;;;24.06;98.25;98137.63;5054423;28;19924;-41
2022/09/14 00:35:19;;;;;;;;;;;;;;;23.02;100.00;98147.97;5071677;28;19924;-41
2022/09/14 00:37:44;;;;;;;;;;;;;;;24.13;96.00;98133.41;5069371;28;19923;-41
2022/09/14 00:40:11;;;;;;;;;;;;;;;24.30;95.28;98134.31;5034356;28;19920;-41
2022/09/14 00:42:36;;;;;;;;;;;;;;;24.84;94.12;98131.41;5052891;28;19943;-41
2022/09/14 00:45:09;;;;;;;;;;;;;;;24.45;94.19;98134.56;5071398;28;20365;-41
2022/09/14 00:47:34;;;;;;;;;;;;;;;24.32;95.78;98123.63;5035753;28;19919;-41
2022/09/14 00:49:59;;;;;;;;;;;;;;;23.52;95.91;98129.88;5052245;28;19920;-41
2022/09/14 00:52:25;;;;;;;;;;;;;;;23.08;98.67;98124.56;5052406;28;19969;-40
2022/09/14 00:54:52;;;;;;;;;;;;;;;23.22;99.39;98123.22;5060000;28;19920;-40
2022/09/14 00:57:18;;;;;;;;;;;;;;;22.84;100.00;98130.38;5053680;28;19916;-41
2022/09/14 00:59:43;;;;;;;;;;;;;;;23.54;96.83;98116.59;5053397;28;20764;-41
2022/09/14 01:02:09;;;;;;;;;;;;;;;23.33;99.23;98117.75;5053248;28;19923;-41
2022/09/14 01:04:35;;;;;;;;;;;;;;;22.91;99.84;98104.34;5053123;28;19970;-40
2022/09/14 01:07:03;;;;;;;;;;;;;;;22.72;98.49;98108.75;5052940;28;19924;-41
2022/09/14 01:09:39;;;;;;;;;;;;;;;23.35;98.23;98102.63;5053500;28;20019;-41
2022/09/14 01:12:19;;;;;;;;;;;;;;;23.62;93.91;98098.22;5051482;28;19949;-40
2022/09/14 01:14:44;;;;;;;;;;;;;;;24.08;94.23;98104.09;5071077;28;19920;-41
2022/09/14 01:17:19;;;;;;;;;;;;;;;23.89;92.60;98099.09;5053306;28;19920;-40
2022/09/14 01:19:59;;;;;;;;;;;;;;;24.43;90.72;98097.03;5071448;28;20061;-41
2022/09/14 01:22:35;;;;;;;;;;;;;;;23.18;94.07;98098.22;5070230;28;19920;-40
2022/09/14 01:25:13;;;;;;;;;;;;;;;23.45;94.18;98102.56;5035856;28;19958;-40
2022/09/14 01:27:42;;;;;;;;;;;;;;;24.01;92.87;98095.19;5070530;28;19920;-41
2022/09/14 01:30:08;;;;;;;;;;;;;;;23.89;93.03;98094.66;5052383;28;20414;-41
2022/09/14 01:32:33;;;;;;;;;;;;;;;23.08;96.79;98100.94;5070122;28;19970;-40
2022/09/14 01:35:13;;;;;;;;;;;;;;;23.84;94.32;98098.75;5070516;28;19935;-40
2022/09/14 01:37:41;;;;;;;;;;;;;;;24.52;90.36;98090.84;5055329;28;19945;-41
2022/09/14 01:40:09;;;;;;;;;;;;;;;23.82;92.40;98095.44;5042208;28;19916;-41
2022/09/14 01:42:34;;;;;;;;;;;;;;;24.09;92.97;98095.25;5053991;28;19919;-41
2022/09/14 01:45:00;;;;;;;;;;;;;;;22.89;97.52;98101.03;5040264;28;19923;-41
2022/09/14 01:47:45;;;;;;;;;;;;;;;22.80;99.03;98089.63;5055399;28;19920;-41
2022/09/14 01:50:16;;;;;;;;;;;;;;;22.64;97.94;98092.09;5055390;28;19971;-41
2022/09/14 01:52:43;;;;;;;;;;;;;;;22.65;100.00;98093.72;5054835;28;19920;-41
2022/09/14 01:55:10;;;;;;;;;;;;;;;23.41;nan;98084.63;5055110;28;19927;-41
2022/09/14 01:57:37;;;;;;;;;;;;;;;23.43;96.04;98080.03;5055036;28;20508;-41
2022/09/14 02:00:05;;;;;;;;;;;;;;;23.06;96.54;98089.75;5074837;28;19939;-40
2022/09/14 02:02:32;;;;;;;;;;;;;;;23.85;94.11;98074.06;5041405;28;19924;-40
2022/09/14 02:05:02;;;;;;;;;;;;;;;22.84;98.99;98083.13;5054879;28;19921;-41
2022/09/14 02:07:28;;;;;;;;;;;;;;;23.28;96.49;98063.97;5053702;28;20002;-40
2022/09/14 02:09:53;;;;;;;;;;;;;;;23.60;95.53;98060.75;5074140;28;20372;-40
2022/09/14 02:12:18;;;;;;;;;;;;;;;22.93;96.00;98061.22;5054607;28;19982;-41
2022/09/14 02:14:44;;;;;;;;;;;;;;;23.92;93.77;98046.16;5056375;28;19962;-41
2022/09/14 02:17:09;;;;;;;;;;;;;;;23.67;94.83;98053.06;5053890;28;19928;-40
2022/09/14 02:19:36;;;;;;;;;;;;;;;23.69;93.59;98051.13;5073736;28;19959;-41
2022/09/14 02:22:01;;;;;;;;;;;;;;;23.77;93.70;98054.66;5056503;28;19920;-41
2022/09/14 02:24:26;;;;;;;;;;;;;;;23.87;93.21;98051.09;5054310;28;19928;-40
2022/09/14 02:26:51;;;;;;;;;;;;;;;24.01;91.91;98050.50;5073030;28;19920;-41
2022/09/14 02:29:17;;;;;;;;;;;;;;;23.10;95.80;98045.63;5055568;28;19920;-41
2022/09/14 02:31:42;;;;;;;;;;;;;;;23.82;93.84;98043.66;5073489;28;19999;-40
2022/09/14 02:34:08;;;;;;;;;;;;;;;23.55;93.39;98044.63;5073355;28;19920;-40
2022/09/14 02:36:43;;;;;;;;;;;;;;;22.68;98.45;98049.66;5055164;28;20507;-40
2022/09/14 02:39:23;;;;;;;;;;;;;;;23.26;98.41;98042.28;5055205;28;19927;-41
2022/09/14 02:42:00;;;;;;;;;;;;;;;23.50;96.64;98036.41;5055162;28;20424;-40
2022/09/14 02:44:25;;;;;;;;;;;;;;;23.09;96.85;98029.03;5055061;28;19966;-40
2022/09/14 02:46:56;;;;;;;;;;;;;;;22.69;99.75;98032.09;5072286;28;20007;-40
2022/09/14 02:49:27;;;;;;;;;;;;;;;23.39;97.37;98022.53;5072774;28;20006;-41
2022/09/14 02:51:52;;;;;;;;;;;;;;;21.95;100.00;98036.50;5073550;28;20307;-41
2022/09/14 02:54:22;;;;;;;;;;;;;;;23.40;98.34;98015.47;5071765;28;19920;-40
2022/09/14 02:56:48;;;;;;;;;;;;;;;23.62;96.61;98008.84;5055218;28;19937;-40
2022/09/14 02:59:13;;;;;;;;;;;;;;;24.02;95.43;98010.06;5073241;28;19987;-40
2022/09/14 03:01:38;;;;;;;;;;;;;;;23.34;98.82;98011.66;5071948;28;19985;-41
2022/09/14 03:04:03;;;;;;;;;;;;;;;24.07;96.60;98002.53;5074339;28;19920;-41
2022/09/14 03:06:28;;;;;;;;;;;;;;;23.97;96.23;98002.66;5071966;28;19930;-41
2022/09/14 03:08:54;;;;;;;;;;;;;;;24.10;96.38;98002.19;5056252;28;19924;-41
2022/09/14 03:11:19;;;;;;;;;;;;;;;24.05;97.89;98003.66;5072721;28;19994;-41
2022/09/14 03:13:44;;;;;;;;;;;;;;;23.89;98.34;97999.16;5073528;28;20414;-41
2022/09/14 03:16:10;;;;;;;;;;;;;;;24.31;96.96;97998.31;5072923;28;20369;-41
2022/09/14 03:18:36;;;;;;;;;;;;;;;23.67;99.48;98001.31;5070312;28;19927;-41
2022/09/14 03:21:06;;;;;;;;;;;;;;;24.20;99.61;98008.16;5073046;28;19920;-41
2022/09/14 03:23:45;;;;;;;;;;;;;;;24.42;99.06;97995.38;5072981;28;20038;-41
2022/09/14 03:26:11;;;;;;;;;;;;;;;24.45;99.96;98000.31;5052667;28;19947;-41
2022/09/14 03:28:36;;;;;;;;;;;;;;;24.48;99.83;97999.22;5068353;28;19945;-41
2022/09/14 03:31:05;;;;;;;;;;;;;;;24.28;100.00;98009.97;5071620;28;20327;-41
2022/09/14 03:33:31;;;;;;;;;;;;;;;24.02;100.00;98002.19;5070955;28;20011;-40
2022/09/14 03:35:56;;;;;;;;;;;;;;;24.15;100.00;98004.34;5073428;28;19920;-41
2022/09/14 03:38:21;;;;;;;;;;;;;;;24.23;100.00;98003.56;5072609;28;20020;-41
2022/09/14 03:40:47;;;;;;;;;;;;;;;24.18;100.00;97994.34;5071769;28;19965;-41
2022/09/14 03:43:12;;;;;;;;;;;;;;;24.31;100.00;97988.59;5073382;28;20007;-41
2022/09/14 03:45:37;;;;;;;;;;;;;;;24.30;100.00;97999.31;5070292;28;20676;-40
2022/09/14 03:48:04;;;;;;;;;;;;;;;24.39;100.00;97993.06;5069659;28;19949;-41
2022/09/14 03:50:29;;;;;;;;;;;;;;;23.88;100.00;97997.50;5068672;28;19924;-40
2022/09/14 03:52:55;;;;;;;;;;;;;;;24.30;100.00;97991.41;5072990;28;19927;-41
2022/09/14 03:55:20;;;;;;;;;;;;;;;24.38;100.00;97984.34;5071382;28;19927;-41
2022/09/14 03:57:45;;;;;;;;;;;;;;;24.19;100.00;97995.97;5071241;28;19927;-40
2022/09/14 04:00:10;;;;;;;;;;;;;;;24.13;100.00;98001.91;5069038;28;19916;-41
2022/09/14 04:02:36;;;;;;;;;;;;;;;24.10;100.00;97991.66;5072361;28;19919;-41
2022/09/14 04:05:01;;;;;;;;;;;;;;;24.01;100.00;97995.25;5053678;28;19920;-41
2022/09/14 04:07:26;;;;;;;;;;;;;;;24.36;100.00;97980.25;5072137;28;19946;-41
2022/09/14 04:09:51;;;;;;;;;;;;;;;24.38;100.00;97984.34;5070378;28;20376;-41
2022/09/14 04:12:16;;;;;;;;;;;;;;;24.05;100.00;97982.63;5073292;28;19981;-41
2022/09/14 04:14:42;;;;;;;;;;;;;;;23.80;100.00;97985.97;5072097;28;20467;-40
2022/09/14 04:17:07;;;;;;;;;;;;;;;23.53;100.00;97986.13;5073642;28;20285;-40
2022/09/14 04:19:36;;;;;;;;;;;;;;;23.88;100.00;97976.47;5070621;28;19924;-41
2022/09/14 04:22:01;;;;;;;;;;;;;;;23.90;100.00;97977.13;5052588;28;20713;-41
2022/09/14 04:24:26;;;;;;;;;;;;;;;22.75;100.00;97979.00;5071763;28;19924;-41
2022/09/14 04:26:51;;;;;;;;;;;;;;;23.36;100.00;97983.44;5071717;28;19916;-41
2022/09/14 04:29:17;;;;;;;;;;;;;;;23.82;100.00;97977.13;5071755;28;19920;-41
2022/09/14 04:31:42;;;;;;;;;;;;;;;23.57;100.00;97984.84;5065062;28;20011;-41
2022/09/14 04:34:09;;;;;;;;;;;;;;;23.95;100.00;97982.75;5071200;28;19920;-41
2022/09/14 04:36:34;;;;;;;;;;;;;;;23.90;100.00;97987.66;5053724;28;19920;-41
2022/09/14 04:39:00;;;;;;;;;;;;;;;23.84;100.00;97990.94;5067630;28;19920;-41
2022/09/14 04:41:25;;;;;;;;;;;;;;;23.86;100.00;97983.72;5069629;28;20362;-41
2022/09/14 04:43:51;;;;;;;;;;;;;;;23.34;100.00;97979.31;5071300;28;20478;-41
2022/09/14 04:46:20;;;;;;;;;;;;;;;23.62;100.00;97974.69;5070200;28;19924;-41
2022/09/14 04:48:45;;;;;;;;;;;;;;;23.90;100.00;97974.50;5053575;28;19927;-41
2022/09/14 04:51:18;;;;;;;;;;;;;;;24.07;100.00;97984.09;5064583;28;19916;-41
2022/09/14 04:53:44;;;;;;;;;;;;;;;24.00;100.00;97975.22;5067562;28;19916;-41
2022/09/14 04:56:10;;;;;;;;;;;;;;;23.96;100.00;97979.94;5065332;28;19924;-41
2022/09/14 04:58:38;;;;;;;;;;;;;;;24.03;100.00;97977.50;5053023;28;19924;-42
2022/09/14 05:01:07;;;;;;;;;;;;;;;24.05;100.00;97975.56;5070988;28;19927;-41
2022/09/14 05:03:33;;;;;;;;;;;;;;;24.05;100.00;97972.91;5068697;28;20590;-41
2022/09/14 05:06:05;;;;;;;;;;;;;;;23.96;100.00;97974.69;5071199;28;19920;-41
2022/09/14 05:08:30;;;;;;;;;;;;;;;23.63;100.00;97972.88;5071949;28;19916;-41
2022/09/14 05:10:55;;;;;;;;;;;;;;;23.86;100.00;97973.19;5071958;28;19931;-41
2022/09/14 05:13:21;;;;;;;;;;;;;;;23.83;100.00;97974.31;5074172;28;19924;-41
2022/09/14 05:15:46;;;;;;;;;;;;;;;23.72;100.00;97969.31;5072983;28;20388;-41
2022/09/14 05:18:11;;;;;;;;;;;;;;;23.70;100.00;97974.75;5076104;28;20209;-41
2022/09/14 05:20:36;;;;;;;;;;;;;;;23.64;100.00;97977.97;5075833;28;20417;-41
2022/09/14 05:23:02;;;;;;;;;;;;;;;23.43;100.00;97972.31;5073494;28;19920;-41
2022/09/14 05:25:27;;;;;;;;;;;;;;;23.63;100.00;97973.72;5075473;28;19946;-41
2022/09/14 05:27:52;;;;;;;;;;;;;;;23.20;100.00;97978.06;5073854;28;19920;-40
2022/09/14 05:30:17;;;;;;;;;;;;;;;23.29;100.00;97977.16;5076308;28;19955;-41
2022/09/14 05:32:43;;;;;;;;;;;;;;;23.41;100.00;97974.25;5074685;28;19920;-41
2022/09/14 05:35:08;;;;;;;;;;;;;;;22.99;100.00;97978.44;5076634;28;19920;-41
2022/09/14 05:37:33;;;;;;;;;;;;;;;23.45;100.00;97968.53;5074862;28;20432;-41
2022/09/14 05:39:58;;;;;;;;;;;;;;;23.19;100.00;97968.53;5073768;28;19990;-41
2022/09/14 05:42:24;;;;;;;;;;;;;;;23.47;100.00;97957.84;5075008;28;20036;-41
2022/09/14 05:44:49;;;;;;;;;;;;;;;23.55;100.00;97960.53;5073441;28;19928;-41
2022/09/14 05:47:14;;;;;;;;;;;;;;;23.68;100.00;97960.94;5072641;28;20764;-41
2022/09/14 05:49:39;;;;;;;;;;;;;;;23.52;100.00;97963.47;5074328;28;19931;-41
2022/09/14 05:52:04;;;;;;;;;;;;;;;23.66;100.00;97962.88;5073205;28;19927;-41
2022/09/14 05:54:30;;;;;;;;;;;;;;;23.61;100.00;97965.16;5074264;28;19952;-41
2022/09/14 05:56:55;;;;;;;;;;;;;;;23.79;100.00;97958.03;5071398;28;20023;-41
2022/09/14 05:59:20;;;;;;;;;;;;;;;23.58;100.00;97968.09;5074402;28;20031;-41
2022/09/14 06:01:45;;;;;;;;;;;;;;;23.58;100.00;97971.56;5073724;28;19920;-41
2022/09/14 06:04:10;;;;;;;;;;;;;;;23.73;100.00;97963.91;5074432;28;19920;-41
2022/09/14 06:06:36;;;;;;;;;;;;;;;23.65;100.00;97966.50;5056040;28;19934;-41
2022/09/14 06:09:01;;;;;;;;;;;;;;;23.46;100.00;97961.47;5073929;28;20452;-41
2022/09/14 06:11:28;;;;;;;;;;;;;;;23.24;100.00;97963.66;5075347;28;19956;-41
2022/09/14 06:13:53;;;;;;;;;;;;;;;23.32;100.00;97965.50;5073034;28;19955;-41
2022/09/14 06:16:19;;;;;;;;;;;;;;;23.37;100.00;97957.97;5055081;28;20006;-41
2022/09/14 06:18:44;;;;;;;;;;;;;;;23.14;100.00;97968.19;5075730;28;19912;-41
2022/09/14 06:21:11;;;;;;;;;;;;;;;22.86;100.00;97970.91;5072632;28;19920;-41
2022/09/14 06:23:36;;;;;;;;;;;;;;;22.83;100.00;97975.63;5073525;28;20031;-41
2022/09/14 06:26:03;;;;;;;;;;;;;;;22.86;100.00;97965.66;5072541;28;20393;-41
2022/09/14 06:28:28;;;;;;;;;;;;;;;22.97;100.00;97965.41;5074714;28;19977;-41
2022/09/14 06:30:53;;;;;;;;;;;;;;;22.97;100.00;97967.22;5072573;28;19920;-41
2022/09/14 06:33:19;;;;;;;;;;;;;;;23.24;100.00;97968.91;5075525;28;19920;-41
2022/09/14 06:35:58;;;;;;;;;;;;;;;23.47;100.00;97955.22;5070126;28;19920;-41
2022/09/14 06:38:24;;;;;;;;;;;;;;;23.54;100.00;97958.91;5074774;28;19916;-41
2022/09/14 06:40:54;;;;;;;;;;;;;;;23.42;100.00;97960.94;5072048;28;21043;-41
2022/09/14 06:43:20;;;;;;;;;;;;;;;23.43;100.00;97956.53;5074775;28;20383;-41
2022/09/14 06:45:53;;;;;;;;;;;;;;;23.41;100.00;97953.25;5072304;28;19924;-41
2022/09/14 06:48:18;;;;;;;;;;;;;;;23.28;100.00;97959.72;5073546;28;19920;-41
2022/09/14 06:50:43;;;;;;;;;;;;;;;23.32;100.00;97958.44;5074326;28;19916;-41
2022/09/14 06:53:09;;;;;;;;;;;;;;;23.34;100.00;97955.66;5074038;28;19924;-41
2022/09/14 06:55:34;;;;;;;;;;;;;;;23.41;100.00;97959.31;5070241;28;19924;-41
2022/09/14 06:57:59;;;;;;;;;;;;;;;23.31;100.00;97954.19;5073829;28;19922;-41
2022/09/14 07:00:24;;;;;;;;;;;;;;;23.27;100.00;97963.34;5074038;28;20019;-41
2022/09/14 07:02:50;;;;;;;;;;;;;;;23.16;100.00;97967.03;5072196;28;19963;-41
2022/09/14 07:05:19;;;;;;;;;;;;;;;22.79;100.00;97969.88;5074681;28;20444;-41
2022/09/14 07:07:44;;;;;;;;;;;;;;;22.84;100.00;97975.47;5074219;28;19916;-42
2022/09/14 07:10:10;;;;;;;;;;;;;;;23.00;100.00;97971.38;5073411;28;19926;-42
2022/09/14 07:12:35;;;;;;;;;;;;;;;22.98;100.00;97980.19;5073582;28;19920;-42
2022/09/14 07:15:01;;;;;;;;;;;;;;;23.35;100.00;97979.13;5073418;28;20479;-42
2022/09/14 07:17:26;;;;;;;;;;;;;;;23.33;100.00;97975.88;5073214;28;20413;-42
2022/09/14 07:19:51;;;;;;;;;;;;;;;23.41;100.00;97974.25;5073243;28;19974;-43
2022/09/14 07:22:16;;;;;;;;;;;;;;;23.57;100.00;97969.09;5053754;28;20030;-43
2022/09/14 07:24:41;;;;;;;;;;;;;;;23.51;100.00;97969.69;5073682;28;19924;-42
2022/09/14 07:27:07;;;;;;;;;;;;;;;23.32;100.00;97976.81;5072831;28;19966;-42
2022/09/14 07:29:32;;;;;;;;;;;;;;;23.08;100.00;97974.03;5073934;28;19947;-42
2022/09/14 07:31:57;;;;;;;;;;;;;;;23.33;100.00;97975.88;5073182;28;19989;-42
2022/09/14 07:34:23;;;;;;;;;;;;;;;23.10;100.00;97983.41;5073599;28;19954;-42
2022/09/14 07:36:49;;;;;;;;;;;;;;;23.17;100.00;97981.00;5073037;28;20402;-42
2022/09/14 07:39:14;;;;;;;;;;;;;;;23.33;100.00;97986.38;5073909;28;19923;-42
2022/09/14 07:41:40;;;;;;;;;;;;;;;23.18;100.00;97985.28;5054754;28;19919;-42
2022/09/14 07:44:06;;;;;;;;;;;;;;;22.98;100.00;97985.44;5073353;28;19946;-42
2022/09/14 07:46:32;;;;;;;;;;;;;;;23.28;100.00;97980.75;5073077;28;19935;-42
2022/09/14 07:48:58;;;;;;;;;;;;;;;23.24;100.00;97984.69;5055842;28;20696;-42
2022/09/14 07:51:23;;;;;;;;;;;;;;;23.29;100.00;97986.84;5071854;28;19973;-42
2022/09/14 07:53:49;;;;;;;;;;;;;;;23.13;100.00;97983.13;5073677;28;19961;-42
2022/09/14 07:56:15;;;;;;;;;;;;;;;22.84;100.00;97983.34;5069785;28;19920;-42
2022/09/14 07:58:41;;;;;;;;;;;;;;;23.13;100.00;97983.13;5071061;28;19985;-42
2022/09/14 08:01:10;;;;;;;;;;;;;;;22.96;100.00;97987.38;5064470;28;20494;-42
2022/09/14 08:03:36;;;;;;;;;;;;;;;22.75;100.00;97990.34;5046743;28;19920;-42
2022/09/14 08:06:02;;;;;;;;;;;;;;;22.70;100.00;97991.78;5054721;28;19986;-42
2022/09/14 08:08:29;;;;;;;;;;;;;;;22.93;100.00;97979.81;5072806;28;19973;-42
2022/09/14 08:10:56;;;;;;;;;;;;;;;22.29;100.00;97988.75;5072811;28;19915;-42
2022/09/14 08:13:22;;;;;;;;;;;;;;;22.41;100.00;97998.06;5055991;28;20386;-42
2022/09/14 08:15:47;;;;;;;;;;;;;;;22.78;100.00;97986.56;5054611;28;20428;-42
2022/09/14 08:18:13;;;;;;;;;;;;;;;23.06;100.00;97986.50;5072212;28;19934;-42
2022/09/14 08:20:38;;;;;;;;;;;;;;;23.15;100.00;97977.72;5071850;28;19923;-42
2022/09/14 08:23:03;;;;;;;;;;;;;;;23.12;100.00;97985.88;5072896;28;19951;-42
2022/09/14 08:25:30;;;;;;;;;;;;;;;23.24;100.00;97975.94;5072076;28;19932;-42
2022/09/14 08:27:55;;;;;;;;;;;;;;;22.88;100.00;97982.09;5072227;28;19961;-42
2022/09/14 08:30:20;;;;;;;;;;;;;;;22.63;100.00;97972.38;5069428;28;19924;-42
2022/09/14 08:32:45;;;;;;;;;;;;;;;22.66;100.00;97974.66;5071824;28;20073;-42
2022/09/14 08:35:11;;;;;;;;;;;;;;;22.28;100.00;97979.22;5069126;28;19920;-42
2022/09/14 08:37:36;;;;;;;;;;;;;;;22.49;100.00;97971.91;5054724;28;19978;-42
2022/09/14 08:40:01;;;;;;;;;;;;;;;22.90;100.00;97967.00;5072508;28;19966;-42
2022/09/14 08:42:26;;;;;;;;;;;;;;;22.94;100.00;97963.09;5054371;28;20030;-42
2022/09/14 08:44:55;;;;;;;;;;;;;;;22.55;100.00;97966.03;5069932;28;19956;-42
2022/09/14 08:47:24;;;;;;;;;;;;;;;22.62;100.00;97958.38;5052706;28;20741;-42
2022/09/14 08:49:50;;;;;;;;;;;;;;;23.01;100.00;97967.75;5072179;28;19970;-42
2022/09/14 08:52:15;;;;;;;;;;;;;;;23.11;100.00;97960.63;5069420;28;19931;-42
2022/09/14 08:54:41;;;;;;;;;;;;;;;23.27;100.00;97960.72;5073298;28;20415;-42
2022/09/14 08:57:20;;;;;;;;;;;;;;;23.27;100.00;97955.47;5070554;28;20376;-42
2022/09/14 09:00:08;;;;;;;;;;;;;;;23.02;100.00;97962.34;5071891;28;20277;-42
2022/09/14 09:02:42;;;;;;;;;;;;;;;22.95;100.00;97964.75;5061576;28;19923;-42
2022/09/14 09:05:07;;;;;;;;;;;;;;;22.72;100.00;97968.84;5038048;28;20531;-42
2022/09/14 09:07:43;;;;;;;;;;;;;;;22.84;100.00;97967.59;5066827;28;19948;-42
2022/09/14 09:10:08;;;;;;;;;;;;;;;22.51;100.00;97972.59;5043741;28;20358;-42
2022/09/14 09:12:34;;;;;;;;;;;;;;;22.73;100.00;97966.03;5055248;28;19916;-42
2022/09/14 09:14:59;;;;;;;;;;;;;;;22.93;100.00;97966.69;5071780;28;20434;-42
2022/09/14 09:17:35;;;;;;;;;;;;;;;22.50;100.00;97960.44;5072012;28;19920;-42
2022/09/14 09:20:10;;;;;;;;;;;;;;;22.64;100.00;97961.69;5072039;28;20538;-42
2022/09/14 09:22:37;;;;;;;;;;;;;;;22.74;100.00;97962.44;5072655;28;20440;-42
2022/09/14 09:25:02;;;;;;;;;;;;;;;22.63;100.00;97954.81;5055114;28;19920;-42
2022/09/14 09:27:28;;;;;;;;;;;;;;;23.08;100.00;97963.53;5052149;28;19919;-42
2022/09/14 09:29:53;;;;;;;;;;;;;;;23.08;100.00;97966.16;5073034;28;19927;-42
2022/09/14 09:32:20;;;;;;;;;;;;;;;23.09;100.00;97958.13;5071489;28;20042;-42
2022/09/14 09:34:45;;;;;;;;;;;;;;;23.05;100.00;97963.84;5054524;28;19921;-43
2022/09/14 09:37:14;;;;;;;;;;;;;;;22.79;100.00;97959.38;5068804;28;19927;-43
2022/09/14 09:39:39;;;;;;;;;;;;;;;22.87;100.00;97962.03;5051271;28;19962;-43
2022/09/14 09:42:31;;;;;;;;;;;;;;;23.10;100.00;97956.31;5054541;28;20065;-43
2022/09/14 09:44:56;;;;;;;;;;;;;;;23.00;100.00;97958.25;5067446;28;19920;-42
2022/09/14 09:47:25;;;;;;;;;;;;;;;22.59;100.00;97952.63;5070724;28;19920;-42
2022/09/14 09:49:56;;;;;;;;;;;;;;;22.52;100.00;97958.47;5036684;28;19920;-42
2022/09/14 09:52:21;;;;;;;;;;;;;;;22.11;100.00;97967.72;5071569;28;19924;-42
2022/09/14 09:54:50;;;;;;;;;;;;;;;22.63;100.00;97954.00;5072726;28;19980;-42
2022/09/14 09:57:20;;;;;;;;;;;;;;;22.29;100.00;97952.84;5073406;28;19923;-42
2022/09/14 09:59:47;;;;;;;;;;;;;;;22.46;100.00;97953.00;5041840;28;19954;-42
2022/09/14 10:02:16;;;;;;;;;;;;;;;22.75;100.00;97952.78;5074523;28;19921;-42
2022/09/14 10:04:58;;;;;;;;;;;;;;;22.52;100.00;97942.72;5058339;28;19970;-42
2022/09/14 10:07:24;;;;;;;;;;;;;;;22.20;100.00;97958.13;5075553;28;20547;-42
2022/09/14 10:09:55;;;;;;;;;;;;;;;22.24;100.00;97956.91;5056159;28;19920;-42
2022/09/14 10:12:21;;;;;;;;;;;;;;;22.60;100.00;97943.78;5056941;28;19919;-42
2022/09/14 10:14:46;;;;;;;;;;;;;;;22.75;100.00;97943.09;5058212;28;19990;-42
2022/09/14 10:17:21;;;;;;;;;;;;;;;21.95;100.00;97942.16;5057225;28;19920;-42
2022/09/14 10:19:51;;;;;;;;;;;;;;;22.55;100.00;97947.66;5055952;28;20027;-42
2022/09/14 10:22:19;;;;;;;;;;;;;;;21.82;100.00;97957.38;5056634;28;20018;-42
2022/09/14 10:25:01;;;;;;;;;;;;;;;22.23;100.00;97952.63;5076512;28;19924;-43
2022/09/14 10:27:35;;;;;;;;;;;;;;;22.02;100.00;97951.06;5056107;28;19923;-42
2022/09/14 10:30:04;;;;;;;;;;;;;;;21.68;100.00;97953.44;5074834;28;19920;-42
2022/09/14 10:32:29;;;;;;;;;;;;;;;21.99;100.00;97946.13;5055776;28;19924;-42
2022/09/14 10:34:54;;;;;;;;;;;;;;;22.06;100.00;97941.94;5074176;28;19980;-42
2022/09/14 10:37:30;;;;;;;;;;;;;;;22.15;100.00;97948.09;5075430;28;19916;-42
2022/09/14 10:39:56;;;;;;;;;;;;;;;21.89;100.00;97947.97;5054394;28;19963;-42
2022/09/14 10:42:33;;;;;;;;;;;;;;;21.66;100.00;97950.16;5059821;28;20046;-42
2022/09/14 10:44:58;;;;;;;;;;;;;;;21.81;100.00;97947.88;5038836;28;19930;-42
2022/09/14 10:47:44;;;;;;;;;;;;;;;21.36;100.00;97953.81;5054235;28;19920;-42
2022/09/14 10:50:24;;;;;;;;;;;;;;;21.56;100.00;97963.31;5056183;28;19927;-42
2022/09/14 10:53:08;;;;;;;;;;;;;;;21.65;100.00;97965.06;5073682;28;19924;-42
2022/09/14 10:55:58;;;;;;;;;;;;;;;21.01;100.00;97961.34;5074860;28;19916;-42
2022/09/14 10:58:42;;;;;;;;;;;;;;;21.86;100.00;97948.25;5055997;28;20687;-42
2022/09/14 11:01:15;;;;;;;;;;;;;;;21.69;100.00;97950.69;5072389;28;19920;-42
2022/09/14 11:03:44;;;;;;;;;;;;;;;21.92;100.00;97955.56;5054785;28;19931;-42
2022/09/14 11:06:25;;;;;;;;;;;;;;;21.88;100.00;97959.44;5070975;28;19928;-42
2022/09/14 11:08:52;;;;;;;;;;;;;;;22.12;100.00;97954.47;5073259;28;19945;-42
2022/09/14 11:11:30;;;;;;;;;;;;;;;22.22;100.00;97946.56;5054575;28;20035;-42
2022/09/14 11:14:21;;;;;;;;;;;;;;;22.10;100.00;97951.16;5072649;28;19920;-42
2022/09/14 11:16:51;;;;;;;;;;;;;;;21.89;100.00;97937.47;5069273;28;19920;-42
2022/09/14 11:19:35;;;;;;;;;;;;;;;21.55;100.00;97948.53;5055475;28;19922;-42
2022/09/14 11:22:15;;;;;;;;;;;;;;;21.17;100.00;97950.31;5072029;28;19988;-42
2022/09/14 11:24:41;;;;;;;;;;;;;;;21.27;100.00;97942.41;5073826;28;20033;-42
2022/09/14 11:27:25;;;;;;;;;;;;;;;21.04;100.00;97940.13;5071906;28;20018;-42
2022/09/14 11:29:50;;;;;;;;;;;;;;;21.75;100.00;97922.25;5074923;28;19923;-42
2022/09/14 11:32:16;;;;;;;;;;;;;;;22.13;100.00;97921.19;5073158;28;20415;-42
2022/09/14 11:34:42;;;;;;;;;;;;;;;22.01;100.00;97915.34;5072238;28;19920;-42
2022/09/14 11:37:09;;;;;;;;;;;;;;;22.14;100.00;97912.34;5054295;28;19977;-42
2022/09/14 11:39:54;;;;;;;;;;;;;;;21.70;100.00;97915.66;5054364;28;19925;-42
2022/09/14 11:42:24;;;;;;;;;;;;;;;20.55;100.00;97922.81;5063833;28;20339;-42
2022/09/14 11:44:53;;;;;;;;;;;;;;;20.87;100.00;97918.13;5068819;28;20467;-42
2022/09/14 11:47:19;;;;;;;;;;;;;;;21.48;100.00;97905.56;5069027;28;19916;-42
2022/09/14 11:49:54;;;;;;;;;;;;;;;21.92;100.00;97903.13;5054195;28;19958;-42
2022/09/14 11:52:20;;;;;;;;;;;;;;;22.11;100.00;97913.47;5054198;28;20003;-42
2022/09/14 11:54:46;;;;;;;;;;;;;;;21.69;100.00;97929.72;5071880;28;20358;-42
2022/09/14 11:57:16;;;;;;;;;;;;;;;22.04;100.00;97920.28;5053471;28;20116;-42
2022/09/14 11:59:43;;;;;;;;;;;;;;;21.59;100.00;97923.69;5072707;28;19923;-42
2022/09/14 12:02:26;;;;;;;;;;;;;;;21.57;100.00;97925.63;5072881;28;20013;-42
2022/09/14 12:05:03;;;;;;;;;;;;;;;21.98;100.00;97917.44;5072066;28;19931;-42
2022/09/14 12:07:38;;;;;;;;;;;;;;;21.76;100.00;97911.63;5053260;28;19927;-42
2022/09/14 12:10:12;;;;;;;;;;;;;;;22.21;100.00;97917.81;5065022;28;19928;-42
2022/09/14 12:12:37;;;;;;;;;;;;;;;22.27;100.00;97917.25;5064030;28;19920;-42
2022/09/14 12:15:03;;;;;;;;;;;;;;;22.47;100.00;97910.88;5054111;28;19938;-41
2022/09/14 12:17:32;;;;;;;;;;;;;;;22.75;100.00;97916.03;5052533;28;20041;-41
2022/09/14 12:19:58;;;;;;;;;;;;;;;21.38;100.00;97925.69;5070739;28;19964;-41
2022/09/14 12:22:26;;;;;;;;;;;;;;;21.88;100.00;97922.75;5047835;28;19977;-42
2022/09/14 12:25:01;;;;;;;;;;;;;;;21.84;100.00;97922.19;5054376;28;19924;-41
2022/09/14 12:27:28;;;;;;;;;;;;;;;22.02;100.00;97910.91;5064532;28;19974;-42
2022/09/14 12:29:53;;;;;;;;;;;;;;;21.76;100.00;97913.41;5070790;28;19939;-42
2022/09/14 12:32:26;;;;;;;;;;;;;;;22.64;100.00;97903.97;5070936;28;20290;-41
2022/09/14 12:35:10;;;;;;;;;;;;;;;22.90;100.00;97898.75;5069438;28;19916;-42
2022/09/14 12:37:35;;;;;;;;;;;;;;;22.68;100.00;97899.25;5069390;28;19932;-42
2022/09/14 12:40:11;;;;;;;;;;;;;;;22.45;100.00;97904.16;5053426;28;19987;-42
2022/09/14 12:42:36;;;;;;;;;;;;;;;22.23;100.00;97910.66;5068811;28;19985;-42